createdAt,value
2022-08-14T00:03:11.834Z,20
2022-08-14T00:08:45.979Z,20
2022-08-14T00:13:54.217Z,20
2022-08-14T00:19:21.918Z,20
2022-08-14T00:24:31.576Z,20
2022-08-14T00:29:49.691Z,20
2022-08-14T00:35:04.216Z,19
2022-08-14T00:40:36.012Z,19
2022-08-14T00:45:53.278Z,19
2022-08-14T00:51:02.789Z,19
2022-08-14T00:56:16.071Z,19
2022-08-14T01:01:28.497Z,19
2022-08-14T01:06:46.744Z,19
2022-08-14T01:12:11.061Z,19
2022-08-14T01:17:23.050Z,19
2022-08-14T01:22:37.447Z,19
2022-08-14T01:27:58.400Z,19
2022-08-14T01:33:13.231Z,19
2022-08-14T01:38:26.483Z,19
2022-08-14T01:43:39.280Z,19
2022-08-14T01:49:08.019Z,19
2022-08-14T01:54:19.638Z,19
2022-08-14T01:59:45.839Z,19
2022-08-14T02:04:58.413Z,18
2022-08-14T02:10:16.388Z,18
2022-08-14T02:15:35.557Z,18
2022-08-14T02:20:48.773Z,18
2022-08-14T02:26:30.796Z,18
2022-08-14T02:32:06.265Z,18
2022-08-14T02:37:49.799Z,18
2022-08-14T02:43:10.664Z,18
2022-08-14T02:49:06.786Z,18
2022-08-14T02:54:20.774Z,18
2022-08-14T02:59:36.865Z,18
2022-08-14T03:04:49.314Z,18
2022-08-14T03:10:34.267Z,18
2022-08-14T03:15:43.444Z,18
2022-08-14T03:20:57.155Z,18
2022-08-14T03:26:08.840Z,17
2022-08-14T03:31:43.494Z,18
2022-08-14T03:39:21.890Z,18
2022-08-14T03:45:35.875Z,18
2022-08-14T03:50:56.775Z,17
2022-08-14T03:56:21.743Z,17
2022-08-14T04:02:01.605Z,17
2022-08-14T04:07:38.384Z,17
2022-08-14T04:13:35.973Z,17
2022-08-14T04:18:56.354Z,17
2022-08-14T04:24:10.391Z,17
2022-08-14T04:29:33.179Z,17
2022-08-14T04:34:52.633Z,17
2022-08-14T04:40:11.126Z,17
2022-08-14T04:45:22.873Z,17
2022-08-14T04:50:53.893Z,17
2022-08-14T04:56:02.845Z,17
2022-08-14T05:01:41.104Z,17
2022-08-14T05:07:00.323Z,17
2022-08-14T05:13:15.937Z,17
2022-08-14T05:19:29.073Z,17
2022-08-14T05:24:37.938Z,17
2022-08-14T05:29:50.467Z,17
2022-08-14T05:35:02.298Z,17
2022-08-14T05:40:14.313Z,17
2022-08-14T05:45:28.444Z,17
2022-08-14T05:50:50.556Z,18
2022-08-14T05:56:03.347Z,17
2022-08-14T06:01:15.319Z,18
2022-08-14T06:06:27.340Z,18
2022-08-14T06:11:39.740Z,18
2022-08-14T06:16:53.809Z,19
2022-08-14T06:22:05.621Z,19
2022-08-14T06:27:24.988Z,19
2022-08-14T06:32:44.769Z,19
2022-08-14T06:37:57.571Z,19
2022-08-14T06:43:10.385Z,19
2022-08-14T06:48:22.562Z,20
2022-08-14T06:53:35.334Z,20
2022-08-14T06:58:47.306Z,20
2022-08-14T07:04:00.388Z,20
2022-08-14T07:09:23.623Z,21
2022-08-14T07:14:35.013Z,21
2022-08-14T07:19:51.448Z,21
2022-08-14T07:25:08.809Z,21
2022-08-14T07:30:35.597Z,22
2022-08-14T07:35:59.809Z,22
2022-08-14T07:41:16.875Z,22
2022-08-14T07:46:31.650Z,22
2022-08-14T07:51:50.635Z,22
2022-08-14T07:57:25.280Z,23
2022-08-14T08:02:35.179Z,23
2022-08-14T08:07:53.476Z,23
2022-08-14T08:13:05.936Z,23
2022-08-14T08:18:29.915Z,24
2022-08-14T08:23:51.904Z,24
2022-08-14T08:29:11.160Z,24
2022-08-14T08:34:24.711Z,24
2022-08-14T08:40:06.210Z,24
2022-08-14T08:45:17.597Z,25
2022-08-14T08:55:44.431Z,25
2022-08-14T09:00:58.888Z,25
2022-08-14T09:07:11.588Z,25
2022-08-14T09:12:19.648Z,26
2022-08-14T09:17:32.279Z,26
2022-08-14T09:22:50.402Z,26
2022-08-14T09:28:12.826Z,26
2022-08-14T09:33:26.815Z,26
2022-08-14T09:38:48.466Z,27
2022-08-14T09:44:06.827Z,27
2022-08-14T09:49:20.068Z,27
2022-08-14T09:54:32.846Z,27
2022-08-14T09:59:45.298Z,27
2022-08-14T10:04:57.924Z,28
2022-08-14T10:10:24.409Z,28
2022-08-14T10:15:34.245Z,28
2022-08-14T10:20:50.492Z,28
2022-08-14T10:26:02.239Z,29
2022-08-14T10:31:14.801Z,29
2022-08-14T10:36:50.007Z,29
2022-08-14T10:42:21.454Z,29
2022-08-14T10:48:24.199Z,29
2022-08-14T10:53:57.333Z,30
2022-08-14T10:59:11.431Z,30
2022-08-14T11:04:28.268Z,30
2022-08-14T11:09:45.781Z,30
2022-08-14T11:15:03.808Z,31
2022-08-14T11:20:18.888Z,32
2022-08-14T11:30:54.605Z,32
2022-08-14T11:36:19.251Z,33
2022-08-14T11:41:46.830Z,35
2022-08-14T11:47:09.219Z,36
2022-08-14T11:52:22.231Z,37
2022-08-14T12:08:07.180Z,36
2022-08-14T12:13:31.140Z,37
2022-08-14T12:18:45.611Z,37
2022-08-14T12:24:02.561Z,36
2022-08-14T12:29:16.525Z,36
2022-08-14T12:34:28.742Z,36
2022-08-14T13:00:24.943Z,31
2022-08-14T13:05:39.879Z,31
2022-08-14T13:26:28.728Z,30
2022-08-14T13:31:43.941Z,30
2022-08-14T13:42:13.998Z,29
2022-08-14T13:47:26.853Z,29
2022-08-14T13:53:00.024Z,30
2022-08-14T13:58:35.914Z,30
2022-08-14T14:03:46.489Z,30
2022-08-14T14:08:59.811Z,30
2022-08-14T14:14:54.868Z,30
2022-08-14T14:20:05.075Z,30
2022-08-14T14:25:22.894Z,30
2022-08-14T14:30:54.906Z,31
2022-08-14T14:36:15.151Z,31
2022-08-14T14:41:44.500Z,32
2022-08-14T15:02:33.771Z,31
2022-08-14T15:07:48.780Z,32
2022-08-14T15:13:07.657Z,32
2022-08-14T15:23:45.380Z,32
2022-08-14T15:29:06.592Z,32
2022-08-14T15:34:57.151Z,31
2022-08-14T15:40:22.753Z,31
2022-08-14T16:06:18.417Z,30
2022-08-14T16:11:36.936Z,30
2022-08-14T16:17:07.196Z,30
2022-08-14T16:23:00.892Z,30
2022-08-14T16:28:07.920Z,30
2022-08-14T16:34:00.863Z,30
2022-08-14T16:40:00.768Z,30
2022-08-14T16:45:14.234Z,30
2022-08-14T16:50:45.823Z,30
2022-08-14T16:55:56.436Z,30
2022-08-14T17:01:27.723Z,29
2022-08-14T17:06:39.043Z,29
2022-08-14T17:12:08.214Z,29
2022-08-14T17:17:39.264Z,29
2022-08-14T17:22:55.233Z,29
2022-08-14T17:28:54.370Z,29
2022-08-14T17:34:01.902Z,29
2022-08-14T17:44:48.923Z,29
2022-08-14T17:51:02.091Z,28
2022-08-14T17:56:16.076Z,28
2022-08-14T18:01:33.954Z,28
2022-08-14T18:08:00.557Z,28
2022-08-14T18:13:53.345Z,28
2022-08-14T18:19:05.552Z,27
2022-08-14T18:24:32.085Z,27
2022-08-14T18:29:43.074Z,27
2022-08-14T18:34:56.004Z,27
2022-08-14T18:40:11.682Z,27
2022-08-14T18:45:31.017Z,26
2022-08-14T18:50:43.286Z,26
2022-08-14T18:55:55.482Z,26
2022-08-14T19:01:22.168Z,26
2022-08-14T19:06:33.164Z,26
2022-08-14T19:11:44.932Z,26
2022-08-14T19:17:05.783Z,26
2022-08-14T19:22:30.528Z,25
2022-08-14T19:27:47.012Z,25
2022-08-14T19:33:14.462Z,25
2022-08-14T19:38:34.222Z,25
2022-08-14T19:43:57.878Z,25
2022-08-14T19:49:09.041Z,25
2022-08-14T19:54:20.526Z,25
2022-08-14T19:59:58.636Z,25
2022-08-14T20:05:12.686Z,25
2022-08-14T20:11:44.896Z,25
2022-08-14T20:17:41.666Z,25
2022-08-14T20:22:56.018Z,25
2022-08-14T20:28:31.181Z,25
2022-08-14T20:33:49.126Z,25
2022-08-14T20:39:06.477Z,25
2022-08-14T20:44:29.006Z,25
2022-08-14T20:49:38.756Z,25
2022-08-14T20:54:52.342Z,25
2022-08-14T21:00:04.836Z,25
2022-08-14T21:05:20.473Z,24
2022-08-14T21:16:58.715Z,25
2022-08-14T21:22:07.301Z,25
2022-08-14T21:27:26.910Z,24
2022-08-14T21:32:58.748Z,24
2022-08-14T21:38:08.073Z,24
2022-08-14T21:43:31.305Z,24
2022-08-14T21:48:45.728Z,24
2022-08-14T21:54:50.363Z,24
2022-08-14T22:00:32.456Z,24
2022-08-14T22:05:48.998Z,24
2022-08-14T22:11:00.788Z,24
2022-08-14T22:17:17.087Z,24
2022-08-14T22:22:23.646Z,24
2022-08-14T22:27:58.118Z,24
2022-08-14T22:33:13.914Z,24
2022-08-14T22:38:50.400Z,24
2022-08-14T22:43:59.771Z,24
2022-08-14T22:50:33.979Z,24
2022-08-14T22:55:39.317Z,24
2022-08-14T23:00:51.463Z,23
2022-08-14T23:07:05.241Z,23
2022-08-14T23:12:30.205Z,23
2022-08-14T23:17:41.350Z,23
2022-08-14T23:22:53.194Z,23
2022-08-14T23:28:05.582Z,23
2022-08-14T23:33:53.583Z,23
2022-08-14T23:39:19.698Z,23
2022-08-14T23:44:29.948Z,23
2022-08-14T23:50:32.924Z,22
2022-08-14T23:55:57.642Z,23
